createdAt,value
2022-09-18T00:01:27.096Z,98234.72
2022-09-18T00:03:57.370Z,98234.19
2022-09-18T00:06:27.678Z,98243.91
2022-09-18T00:08:58.021Z,98243.06
2022-09-18T00:11:30.000Z,98245.63
2022-09-18T00:13:57.623Z,98251.00
2022-09-18T00:16:26.222Z,98255.94
2022-09-18T00:18:53.600Z,98246.94
2022-09-18T00:21:24.617Z,98244.53
2022-09-18T00:23:58.408Z,98243.75
2022-09-18T00:26:25.890Z,98245.19
2022-09-18T00:28:54.581Z,98253.41
2022-09-18T00:31:27.733Z,98248.97
2022-09-18T00:33:54.815Z,98251.00
2022-09-18T00:36:22.734Z,98250.16
2022-09-18T00:38:50.159Z,98237.34
2022-09-18T00:41:34.652Z,98241.69
2022-09-18T00:44:40.491Z,98232.72
2022-09-18T00:47:10.313Z,98238.50
2022-09-18T00:49:40.508Z,98237.72
2022-09-18T00:52:07.621Z,98245.50
2022-09-18T00:54:38.858Z,98245.59
2022-09-18T00:57:12.021Z,98242.81
2022-09-18T00:59:43.334Z,98233.66
2022-09-18T01:02:10.332Z,98231.31
2022-09-18T01:04:37.287Z,98234.31
2022-09-18T01:07:15.322Z,98241.59
2022-09-18T01:10:12.459Z,98232.38
2022-09-18T01:12:56.150Z,98237.69
2022-09-18T01:15:54.778Z,98233.25
2022-09-18T01:19:03.546Z,98233.19
2022-09-18T01:22:40.367Z,98237.19
2022-09-18T01:25:29.611Z,98242.88
2022-09-18T01:28:17.740Z,98245.88
2022-09-18T01:30:50.992Z,98249.38
2022-09-18T01:34:21.230Z,98245.13
2022-09-18T01:36:58.893Z,98247.91
2022-09-18T01:39:43.499Z,98236.78
2022-09-18T01:42:12.981Z,98247.63
2022-09-18T01:44:43.058Z,98235.06
2022-09-18T01:47:14.207Z,98241.38
2022-09-18T01:49:47.556Z,98236.59
2022-09-18T01:52:30.889Z,98240.84
2022-09-18T01:55:01.129Z,98230.25
2022-09-18T01:57:40.342Z,98225.41
2022-09-18T02:00:11.899Z,98230.78
2022-09-18T02:02:58.676Z,98229.28
2022-09-18T02:05:41.973Z,98230.09
2022-09-18T02:08:27.539Z,98217.44
2022-09-18T02:11:06.918Z,98215.09
2022-09-18T02:14:16.870Z,98220.75
2022-09-18T02:17:15.416Z,98217.03
2022-09-18T02:19:49.480Z,98213.47
2022-09-18T02:22:21.422Z,98222.16
2022-09-18T02:24:52.243Z,98206.41
2022-09-18T02:27:21.792Z,98221.53
2022-09-18T02:29:51.255Z,98220.38
2022-09-18T02:32:18.636Z,98215.22
2022-09-18T02:34:45.609Z,98219.13
2022-09-18T02:37:24.546Z,98219.03
2022-09-18T02:40:08.260Z,98216.22
2022-09-18T02:43:00.578Z,98224.34
2022-09-18T02:46:07.332Z,98228.09
2022-09-18T02:49:10.941Z,98217.25
2022-09-18T02:52:07.032Z,98214.56
2022-09-18T02:54:51.240Z,98216.63
2022-09-18T02:57:35.783Z,98219.38
2022-09-18T03:00:08.040Z,98236.66
2022-09-18T03:02:37.802Z,98230.72
2022-09-18T03:05:07.531Z,98230.56
2022-09-18T03:07:42.679Z,98231.94
2022-09-18T03:10:11.627Z,98217.34
2022-09-18T03:12:39.004Z,98205.63
2022-09-18T03:15:07.061Z,98199.34
2022-09-18T03:17:35.172Z,98211.50
2022-09-18T03:20:04.082Z,98214.16
2022-09-18T03:22:31.040Z,98203.13
2022-09-18T03:24:58.013Z,98208.69
2022-09-18T03:27:25.908Z,98208.34
2022-09-18T03:29:53.002Z,98222.41
2022-09-18T03:32:23.001Z,98213.59
2022-09-18T03:34:52.492Z,98209.69
2022-09-18T03:37:19.473Z,98208.72
2022-09-18T03:39:46.832Z,98206.00
2022-09-18T03:42:14.945Z,98208.78
2022-09-18T03:44:41.897Z,98220.41
2022-09-18T03:47:22.557Z,98210.94
2022-09-18T03:49:49.561Z,98213.97
2022-09-18T03:52:16.606Z,98223.16
2022-09-18T03:54:53.349Z,98227.66
2022-09-18T03:57:43.098Z,98222.59
2022-09-18T04:00:21.646Z,98211.19
2022-09-18T04:02:54.946Z,98215.03
2022-09-18T04:05:48.479Z,98230.53
2022-09-18T04:08:34.484Z,98231.69
2022-09-18T04:11:24.251Z,98233.81
2022-09-18T04:13:51.214Z,98218.91
2022-09-18T04:16:18.347Z,98221.50
2022-09-18T04:18:45.294Z,98233.03
2022-09-18T04:21:12.230Z,98241.13
2022-09-18T04:23:39.163Z,98235.84
2022-09-18T04:26:09.526Z,98237.19
2022-09-18T04:28:41.717Z,98234.84
2022-09-18T04:31:10.827Z,98232.41
2022-09-18T04:33:37.931Z,98239.38
2022-09-18T04:36:07.389Z,98236.69
2022-09-18T04:38:35.435Z,98234.66
2022-09-18T04:41:02.412Z,98226.88
2022-09-18T04:43:30.415Z,98234.84
2022-09-18T04:45:58.826Z,98235.00
2022-09-18T04:48:25.799Z,98246.22
2022-09-18T04:50:53.372Z,98224.63
2022-09-18T04:53:21.808Z,98241.59
2022-09-18T04:55:49.273Z,98234.16
2022-09-18T04:58:18.843Z,98230.56
2022-09-18T05:00:50.854Z,98239.94
2022-09-18T05:03:19.446Z,98230.28
2022-09-18T05:05:48.292Z,98232.19
2022-09-18T05:08:17.216Z,98235.63
2022-09-18T05:10:44.629Z,98246.03
2022-09-18T05:13:12.104Z,98250.66
2022-09-18T05:15:45.167Z,98258.78
2022-09-18T05:18:12.590Z,98248.75
2022-09-18T05:20:40.318Z,98253.88
2022-09-18T05:23:08.824Z,98246.88
2022-09-18T05:25:36.887Z,98251.06
2022-09-18T05:28:04.285Z,98253.03
2022-09-18T05:30:37.892Z,98257.66
2022-09-18T05:33:07.408Z,98261.66
2022-09-18T05:35:58.109Z,98253.69
2022-09-18T05:38:26.222Z,98260.50
2022-09-18T05:40:53.921Z,98280.72
2022-09-18T05:43:20.828Z,98263.53
2022-09-18T05:45:49.949Z,98254.34
2022-09-18T05:48:21.767Z,98263.00
2022-09-18T05:50:53.596Z,98268.13
2022-09-18T05:53:22.037Z,98268.06
2022-09-18T05:56:00.236Z,98258.28
2022-09-18T05:58:27.240Z,98272.28
2022-09-18T06:00:58.699Z,98276.25
2022-09-18T06:03:32.541Z,98278.59
2022-09-18T06:06:00.924Z,98278.19
2022-09-18T06:08:27.883Z,98270.56
2022-09-18T06:10:54.844Z,98279.16
2022-09-18T06:13:21.951Z,98270.16
2022-09-18T06:15:52.578Z,98287.97
2022-09-18T06:18:28.845Z,98294.03
2022-09-18T06:20:59.141Z,98271.44
2022-09-18T06:23:29.604Z,98296.06
2022-09-18T06:26:09.443Z,98303.19
2022-09-18T06:28:40.421Z,98301.75
2022-09-18T06:31:07.849Z,98296.41
2022-09-18T06:33:49.174Z,98291.16
2022-09-18T06:36:16.588Z,98305.63
2022-09-18T06:39:06.182Z,98280.31
2022-09-18T06:41:33.150Z,98276.59
2022-09-18T06:44:04.370Z,98273.59
2022-09-18T06:46:33.743Z,98275.03
2022-09-18T06:49:13.864Z,98272.19
2022-09-18T06:51:46.025Z,98273.97
2022-09-18T06:54:13.562Z,98271.22
2022-09-18T06:56:41.929Z,98272.03
2022-09-18T06:59:12.014Z,98285.72
2022-09-18T07:01:39.940Z,98296.81
2022-09-18T07:04:15.127Z,98283.91
2022-09-18T07:06:47.086Z,98297.63
2022-09-18T07:09:15.276Z,98286.06
2022-09-18T07:12:01.649Z,98297.50
2022-09-18T07:14:42.335Z,98283.25
2022-09-18T07:17:15.468Z,98292.75
2022-09-18T07:19:46.167Z,98290.63
2022-09-18T07:22:15.740Z,98295.81
2022-09-18T07:24:46.504Z,98276.81
2022-09-18T07:27:14.057Z,98285.16
2022-09-18T07:29:42.990Z,98289.81
2022-09-18T07:32:13.802Z,98281.28
2022-09-18T07:34:43.883Z,98280.72
2022-09-18T07:37:13.574Z,98287.00
2022-09-18T07:39:44.151Z,98297.28
2022-09-18T07:42:29.626Z,98294.41
2022-09-18T07:44:57.621Z,98291.97
2022-09-18T07:47:25.284Z,98301.22
2022-09-18T07:49:53.197Z,98298.69
2022-09-18T07:52:21.350Z,98304.94
2022-09-18T07:54:51.631Z,98310.63
2022-09-18T07:57:33.473Z,98300.09
2022-09-18T08:00:29.367Z,98311.91
2022-09-18T08:03:11.924Z,98306.69
2022-09-18T08:06:17.847Z,98302.53
2022-09-18T08:09:03.184Z,98304.63
2022-09-18T08:11:37.946Z,98300.50
2022-09-18T08:14:28.064Z,98298.03
2022-09-18T08:17:18.532Z,98314.47
2022-09-18T08:20:14.851Z,98307.47
2022-09-18T08:22:48.962Z,98304.44
2022-09-18T08:25:16.943Z,98310.97
2022-09-18T08:27:48.201Z,98312.22
2022-09-18T08:30:19.662Z,98308.13
2022-09-18T08:32:51.525Z,98312.59
2022-09-18T08:35:18.461Z,98309.34
2022-09-18T08:37:49.519Z,98309.16
2022-09-18T08:40:54.927Z,98302.91
2022-09-18T08:43:49.690Z,98309.66
2022-09-18T08:46:43.571Z,98304.25
2022-09-18T08:49:31.003Z,98304.59
2022-09-18T08:52:09.227Z,98308.06
2022-09-18T08:55:05.043Z,98295.63
2022-09-18T08:58:03.257Z,98298.75
2022-09-18T09:00:51.171Z,98294.66
2022-09-18T09:04:06.816Z,98303.56
2022-09-18T09:07:15.152Z,98302.59
2022-09-18T09:10:18.669Z,98314.25
2022-09-18T09:13:16.678Z,98318.88
2022-09-18T09:16:06.890Z,98316.94
2022-09-18T09:18:57.373Z,98320.84
2022-09-18T09:21:55.362Z,98309.94
2022-09-18T09:24:46.929Z,98315.63
2022-09-18T09:27:49.324Z,98317.31
2022-09-18T09:30:35.555Z,98310.78
2022-09-18T09:33:34.851Z,98310.78
2022-09-18T09:36:27.076Z,98314.03
2022-09-18T09:39:39.637Z,98299.19
2022-09-18T09:42:34.385Z,98303.19
2022-09-18T09:45:10.832Z,98306.91
2022-09-18T09:47:50.311Z,98294.16
2022-09-18T09:50:36.042Z,98299.63
2022-09-18T09:53:09.159Z,98292.50
2022-09-18T09:55:55.996Z,98303.47
2022-09-18T09:58:54.667Z,98295.56
2022-09-18T10:01:46.246Z,98306.22
2022-09-18T10:04:34.444Z,98296.78
2022-09-18T10:07:46.721Z,98310.75
2022-09-18T10:10:32.045Z,98309.03
2022-09-18T10:13:23.448Z,98303.13
2022-09-18T10:16:14.411Z,98302.72
2022-09-18T10:18:45.979Z,98305.25
2022-09-18T10:21:21.103Z,98301.34
2022-09-18T10:24:13.985Z,98291.22
2022-09-18T10:26:54.509Z,98294.97
2022-09-18T10:29:21.676Z,98309.56
2022-09-18T10:32:00.088Z,98290.72
2022-09-18T10:34:30.964Z,98293.81
2022-09-18T10:36:58.047Z,98288.03
2022-09-18T10:39:33.193Z,98297.13
2022-09-18T10:42:17.103Z,98280.81
2022-09-18T10:44:54.963Z,98283.66
2022-09-18T10:47:31.279Z,98276.38
2022-09-18T10:50:06.308Z,98281.09
2022-09-18T10:52:49.866Z,98279.31
2022-09-18T10:55:31.189Z,98273.56
2022-09-18T10:58:14.829Z,98286.59
2022-09-18T11:00:58.698Z,98274.22
2022-09-18T11:03:49.646Z,98272.81
2022-09-18T11:06:27.969Z,98264.59
2022-09-18T11:09:01.900Z,98266.00
2022-09-18T11:11:34.159Z,98263.34
2022-09-18T11:14:29.349Z,98280.00
2022-09-18T11:17:04.428Z,98270.34
2022-09-18T11:19:41.120Z,98270.13
2022-09-18T11:22:44.427Z,98264.25
2022-09-18T11:25:37.663Z,98237.25
2022-09-18T11:28:30.129Z,98248.56
2022-09-18T11:31:25.010Z,98237.16
2022-09-18T11:34:02.916Z,98236.81
2022-09-18T11:36:40.868Z,98233.41
2022-09-18T11:39:21.347Z,98232.47
2022-09-18T11:41:52.416Z,98221.44
2022-09-18T11:44:28.460Z,98213.69
2022-09-18T11:47:30.765Z,98201.59
2022-09-18T11:50:17.227Z,98200.69
2022-09-18T11:52:46.410Z,98209.75
2022-09-18T11:55:32.304Z,98195.97
2022-09-18T11:58:33.598Z,98192.78
2022-09-18T12:01:25.380Z,98187.06
2022-09-18T12:04:26.211Z,98182.22
2022-09-18T12:07:00.985Z,98172.88
2022-09-18T12:09:59.409Z,98189.34
2022-09-18T12:12:54.985Z,98191.13
2022-09-18T12:15:26.950Z,98178.38
2022-09-18T12:17:57.776Z,98171.69
2022-09-18T12:20:31.862Z,98175.63
2022-09-18T12:23:01.335Z,98175.22
2022-09-18T12:25:57.715Z,98173.72
2022-09-18T12:29:17.962Z,98166.88
2022-09-18T12:32:21.524Z,98168.19
2022-09-18T12:35:03.773Z,98165.31
2022-09-18T12:38:04.482Z,98163.16
2022-09-18T12:40:43.937Z,98151.78
2022-09-18T12:43:39.583Z,98157.53
2022-09-18T12:46:22.364Z,98148.97
2022-09-18T12:49:05.604Z,98157.38
2022-09-18T12:51:47.290Z,98156.72
2022-09-18T12:54:56.096Z,98163.53
2022-09-18T12:57:40.945Z,98158.22
2022-09-18T13:00:12.649Z,98158.72
2022-09-18T13:02:52.424Z,98157.47
2022-09-18T13:05:44.471Z,98157.47
2022-09-18T13:08:19.311Z,98158.63
2022-09-18T13:10:50.186Z,98155.94
2022-09-18T13:13:33.275Z,98152.22
2022-09-18T13:16:34.452Z,98148.38
2022-09-18T13:19:16.864Z,98154.50
2022-09-18T13:21:46.069Z,98153.97
2022-09-18T13:24:24.105Z,98149.53
2022-09-18T13:26:52.021Z,98152.56
2022-09-18T13:29:53.067Z,98147.84
2022-09-18T13:32:35.178Z,98158.13
2022-09-18T13:35:13.173Z,98166.63
2022-09-18T13:37:41.782Z,98153.91
2022-09-18T13:40:40.157Z,98138.47
2022-09-18T13:43:30.322Z,98141.00
2022-09-18T13:46:00.870Z,98140.25
2022-09-18T13:48:41.112Z,98141.16
2022-09-18T13:51:31.385Z,98139.47
2022-09-18T13:54:13.792Z,98134.78
2022-09-18T13:57:10.540Z,98129.28
2022-09-18T14:00:28.128Z,98131.38
2022-09-18T14:03:07.245Z,98131.06
2022-09-18T14:05:38.065Z,98121.72
2022-09-18T14:08:40.291Z,98132.19
2022-09-18T14:11:17.607Z,98127.38
2022-09-18T14:13:55.374Z,98119.94
2022-09-18T14:16:23.141Z,98123.81
2022-09-18T14:18:49.942Z,98122.97
2022-09-18T14:21:26.722Z,98126.97
2022-09-18T14:24:18.499Z,98127.19
2022-09-18T14:26:46.009Z,98130.94
2022-09-18T14:29:18.657Z,98124.16
2022-09-18T14:31:49.439Z,98121.72
2022-09-18T14:34:42.829Z,98126.72
2022-09-18T14:37:20.442Z,98118.78
2022-09-18T14:39:48.104Z,98117.28
2022-09-18T14:42:30.792Z,98121.53
2022-09-18T14:45:12.311Z,98110.34
2022-09-18T14:47:45.599Z,98099.94
2022-09-18T14:50:37.551Z,98099.25
2022-09-18T14:53:24.424Z,98095.31
2022-09-18T14:56:00.377Z,98096.25
2022-09-18T14:58:37.175Z,98097.78
2022-09-18T15:01:09.847Z,98092.47
2022-09-18T15:03:42.338Z,98078.44
2022-09-18T15:06:34.057Z,98081.06
2022-09-18T15:09:03.432Z,98080.09
2022-09-18T15:11:41.945Z,98074.50
2022-09-18T15:14:28.590Z,98075.63
2022-09-18T15:17:00.866Z,98073.06
2022-09-18T15:19:30.327Z,98080.22
2022-09-18T15:22:00.131Z,98075.28
2022-09-18T15:24:28.209Z,98076.88
2022-09-18T15:26:59.785Z,98067.66
2022-09-18T15:29:48.244Z,98072.97
2022-09-18T15:32:30.597Z,98080.97
2022-09-18T15:34:58.987Z,98079.25
2022-09-18T15:37:27.288Z,98073.13
2022-09-18T15:40:30.375Z,98077.28
2022-09-18T15:42:58.426Z,98078.16
2022-09-18T15:45:33.711Z,98076.66
2022-09-18T15:48:34.023Z,98075.09
2022-09-18T15:51:22.971Z,98069.88
2022-09-18T15:54:16.199Z,98061.00
2022-09-18T15:56:59.040Z,98068.38
2022-09-18T15:59:39.262Z,98056.81
2022-09-18T16:02:35.219Z,98062.72
2022-09-18T16:05:14.976Z,98061.69
2022-09-18T16:08:02.156Z,98060.97
2022-09-18T16:10:35.357Z,98059.09
2022-09-18T16:13:04.702Z,98063.53
2022-09-18T16:15:33.935Z,98061.81
2022-09-18T16:18:16.087Z,98052.97
2022-09-18T16:20:59.509Z,98047.63
2022-09-18T16:23:51.297Z,98044.22
2022-09-18T16:26:31.073Z,98041.97
2022-09-18T16:29:06.769Z,98044.50
2022-09-18T16:31:37.557Z,98047.38
2022-09-18T16:34:21.177Z,98035.47
2022-09-18T16:36:48.921Z,98035.16
2022-09-18T16:39:19.444Z,98035.16
2022-09-18T16:41:48.035Z,98030.09
2022-09-18T16:44:16.978Z,98026.22
2022-09-18T16:46:45.789Z,98027.59
2022-09-18T16:49:16.680Z,98022.25
2022-09-18T16:51:44.008Z,98024.06
2022-09-18T16:54:11.100Z,98025.97
2022-09-18T16:56:53.015Z,98026.72
2022-09-18T16:59:27.448Z,98021.38
2022-09-18T17:02:03.903Z,98020.88
2022-09-18T17:04:32.648Z,98013.78
2022-09-18T17:06:59.714Z,98015.03
2022-09-18T17:09:27.063Z,98019.06
2022-09-18T17:11:54.606Z,98016.47
2022-09-18T17:14:22.656Z,98013.28
2022-09-18T17:16:49.792Z,98002.44
2022-09-18T17:19:25.685Z,98004.59
2022-09-18T17:21:53.251Z,98002.72
2022-09-18T17:24:25.506Z,98002.13
2022-09-18T17:26:53.950Z,97998.56
2022-09-18T17:29:21.229Z,98000.16
2022-09-18T17:31:48.292Z,97997.84
2022-09-18T17:34:16.761Z,97998.31
2022-09-18T17:36:46.074Z,97996.91
2022-09-18T17:39:13.558Z,97997.00
2022-09-18T17:41:42.753Z,97994.59
2022-09-18T17:44:10.087Z,97979.56
2022-09-18T17:46:37.273Z,97997.66
2022-09-18T17:49:05.819Z,97989.59
2022-09-18T17:51:33.558Z,97990.66
2022-09-18T17:54:05.640Z,97990.38
2022-09-18T17:56:33.563Z,97990.63
2022-09-18T17:59:07.091Z,97993.78
2022-09-18T18:01:37.621Z,97991.78
2022-09-18T18:04:08.958Z,97997.94
2022-09-18T18:06:37.300Z,97992.03
2022-09-18T18:09:06.632Z,97991.91
2022-09-18T18:11:33.780Z,97992.25
2022-09-18T18:14:00.803Z,97991.38
2022-09-18T18:16:30.601Z,97989.13
2022-09-18T18:19:02.876Z,97983.56
2022-09-18T18:21:31.727Z,97987.72
2022-09-18T18:24:01.888Z,97990.34
2022-09-18T18:26:29.602Z,98003.31
2022-09-18T18:28:57.201Z,98012.59
2022-09-18T18:31:26.145Z,98013.16
2022-09-18T18:33:56.786Z,98012.38
2022-09-18T18:36:28.213Z,98022.97
2022-09-18T18:38:58.198Z,98025.28
2022-09-18T18:41:28.926Z,98028.66
2022-09-18T18:43:59.027Z,98026.25
2022-09-18T18:46:28.498Z,98020.00
2022-09-18T18:49:03.933Z,98018.88
2022-09-18T18:51:36.364Z,98029.41
2022-09-18T18:54:05.237Z,98028.22
2022-09-18T18:56:35.231Z,98015.88
2022-09-18T18:59:04.630Z,98026.06
2022-09-18T19:01:32.516Z,98015.50
2022-09-18T19:04:06.585Z,98020.28
2022-09-18T19:06:36.375Z,98020.78
2022-09-18T19:09:14.282Z,98027.38
2022-09-18T19:11:45.202Z,98022.78
2022-09-18T19:14:16.162Z,98024.53
2022-09-18T19:16:45.495Z,98029.50
2022-09-18T19:19:14.398Z,98023.16
2022-09-18T19:21:42.498Z,98018.84
2022-09-18T19:24:11.113Z,98020.63
2022-09-18T19:26:41.192Z,98024.41
2022-09-18T19:29:16.321Z,98018.06
2022-09-18T19:31:45.585Z,98018.19
2022-09-18T19:34:17.454Z,98017.47
2022-09-18T19:36:50.129Z,98012.66
2022-09-18T19:39:22.381Z,98016.66
2022-09-18T19:42:10.577Z,98024.41
2022-09-18T19:44:55.485Z,98029.75
2022-09-18T19:47:41.167Z,98027.41
2022-09-18T19:50:23.013Z,98025.78
2022-09-18T19:52:51.485Z,98033.03
2022-09-18T19:55:22.305Z,98034.41
2022-09-18T19:57:52.415Z,98030.31
2022-09-18T20:00:19.409Z,98031.84
2022-09-18T20:02:46.695Z,98048.81
2022-09-18T20:05:13.597Z,98033.63
2022-09-18T20:07:49.580Z,98037.81
2022-09-18T20:10:17.558Z,98054.31
2022-09-18T20:12:44.575Z,98055.19
2022-09-18T20:15:19.462Z,98048.81
2022-09-18T20:17:47.001Z,98057.69
2022-09-18T20:20:16.433Z,98055.63
2022-09-18T20:22:46.257Z,98058.06
2022-09-18T20:25:13.562Z,98054.00
2022-09-18T20:27:42.125Z,98065.56
2022-09-18T20:30:17.827Z,98076.81
2022-09-18T20:32:45.021Z,98088.19
2022-09-18T20:35:11.947Z,98092.91
2022-09-18T20:37:39.037Z,98076.63
2022-09-18T20:40:14.230Z,98085.00
2022-09-18T20:42:41.397Z,98086.63
2022-09-18T20:45:08.851Z,98087.16
2022-09-18T20:47:37.180Z,98073.41
2022-09-18T20:50:08.281Z,98081.69
2022-09-18T20:52:39.373Z,98079.03
2022-09-18T20:55:15.729Z,98075.38
2022-09-18T20:57:46.592Z,98073.03
2022-09-18T21:00:17.593Z,98061.28
2022-09-18T21:02:53.310Z,98036.72
2022-09-18T21:05:20.714Z,98048.94
2022-09-18T21:07:48.290Z,98058.38
2022-09-18T21:10:15.269Z,98049.81
2022-09-18T21:12:42.454Z,98036.28
2022-09-18T21:15:15.257Z,98044.03
2022-09-18T21:17:42.874Z,98041.84
2022-09-18T21:20:10.190Z,98026.31
2022-09-18T21:22:57.089Z,98030.44
2022-09-18T21:25:24.891Z,98032.47
2022-09-18T21:27:55.249Z,98017.72
2022-09-18T21:30:24.101Z,98020.25
2022-09-18T21:32:55.408Z,98012.13
2022-09-18T21:35:22.578Z,98019.06
2022-09-18T21:37:49.646Z,98018.13
2022-09-18T21:40:16.762Z,98029.59
2022-09-18T21:42:47.907Z,98020.00
2022-09-18T21:45:18.595Z,98024.91
2022-09-18T21:47:47.231Z,98038.06
2022-09-18T21:50:14.656Z,98039.22
2022-09-18T21:52:43.302Z,98040.38
2022-09-18T21:55:10.512Z,98047.91
2022-09-18T21:57:38.149Z,98030.19
2022-09-18T22:00:09.021Z,98031.81
2022-09-18T22:02:41.015Z,98034.91
2022-09-18T22:05:12.131Z,98031.16
2022-09-18T22:07:39.144Z,98036.59
2022-09-18T22:10:10.104Z,98035.88
2022-09-18T22:12:38.884Z,98046.66
2022-09-18T22:15:06.520Z,98051.81
2022-09-18T22:17:33.459Z,98056.22
2022-09-18T22:20:00.387Z,98066.13
2022-09-18T22:22:27.421Z,98054.59
2022-09-18T22:24:55.434Z,98064.09
2022-09-18T22:27:22.379Z,98066.69
2022-09-18T22:29:50.448Z,98077.53
2022-09-18T22:32:17.330Z,98075.53
2022-09-18T22:34:44.248Z,98079.94
2022-09-18T22:37:11.710Z,98084.38
2022-09-18T22:39:38.628Z,98090.44
2022-09-18T22:42:05.838Z,98086.47
2022-09-18T22:44:32.785Z,98091.00
2022-09-18T22:46:59.826Z,98092.16
2022-09-18T22:49:26.812Z,98120.50
2022-09-18T22:51:57.426Z,98113.06
2022-09-18T22:54:26.467Z,98125.66
2022-09-18T22:56:55.146Z,98146.50
2022-09-18T22:59:25.968Z,98144.25
2022-09-18T23:02:02.192Z,98152.59
2022-09-18T23:04:31.583Z,98156.91
2022-09-18T23:06:59.337Z,98150.97
2022-09-18T23:09:27.507Z,98144.19
2022-09-18T23:11:54.916Z,98152.81
2022-09-18T23:14:27.839Z,98142.31
2022-09-18T23:16:56.889Z,98145.69
2022-09-18T23:19:34.459Z,98146.97
2022-09-18T23:22:05.060Z,98145.44
2022-09-18T23:24:32.115Z,98129.38
2022-09-18T23:26:59.766Z,98122.78
2022-09-18T23:29:28.605Z,98121.91
2022-09-18T23:31:59.091Z,98150.63
2022-09-18T23:34:31.955Z,98174.63
2022-09-18T23:37:02.276Z,98168.13
2022-09-18T23:39:34.417Z,98173.78
2022-09-18T23:42:05.549Z,98180.09
2022-09-18T23:44:33.210Z,98187.09
2022-09-18T23:47:00.834Z,98184.50
2022-09-18T23:49:29.402Z,98192.13
2022-09-18T23:51:57.371Z,98199.84
2022-09-18T23:54:28.435Z,98193.50
2022-09-18T23:56:55.555Z,98189.47
2022-09-18T23:59:24.699Z,98189.66
